Saginaw, Michigan
Current Conditions -  °F | °C
As of 11:15 PM on Monday 22 Dec 2014 (Local Time) from KHYX Reporting Station
Overcast Overcast  
Wind Chill: 29°   Ceiling: 5000
Heat Index: 34°   Visibility: 7mi
Dew Point: 32°   Wind: 6mph
Humidity: 93%   Direction: 90°E
Pressure: 29.89"   Gusts: NA
Location:  43.42°N, 83.95°W
Report Text: KHYX 230415Z AUTO 09005KT 7SM SCT043 BKN050 OVC080 01/00 A2989 RMK AO2
Loading
Personal Weather Stations






























Interactive Weather Map New forecast layout! Learn more

10-Day Weather Forecast

Advertisements
Track Severe Weather on mobile